createdAt,value
2023-03-30T00:01:15.416Z,96187.31
2023-03-30T00:03:49.385Z,96181.91
2023-03-30T00:06:23.205Z,96176.78
2023-03-30T00:08:58.183Z,96172.16
2023-03-30T00:11:34.347Z,96176.75
2023-03-30T00:14:07.100Z,96171.69
2023-03-30T00:16:41.461Z,96163.16
2023-03-30T00:19:14.306Z,96163.09
2023-03-30T00:21:47.721Z,96164.25
2023-03-30T00:24:20.459Z,96164.97
2023-03-30T00:26:53.114Z,96153.72
2023-03-30T00:29:25.989Z,96156.34
2023-03-30T00:32:00.072Z,96148.19
2023-03-30T00:34:33.040Z,96140.81
2023-03-30T00:37:05.723Z,96148.09
2023-03-30T00:39:38.425Z,96141.09
2023-03-30T00:42:15.029Z,96132.16
2023-03-30T00:45:06.423Z,96128.66
2023-03-30T00:47:43.089Z,96125.16
2023-03-30T00:50:16.961Z,96121.28
2023-03-30T00:52:53.583Z,96115.81
2023-03-30T00:55:29.152Z,96116.19
2023-03-30T00:58:02.504Z,96113.84
2023-03-30T01:00:38.500Z,96115.78
2023-03-30T01:03:17.633Z,96120.41
2023-03-30T01:05:50.535Z,96129.25
2023-03-30T01:08:24.180Z,96123.13
2023-03-30T01:10:56.868Z,96128.13
2023-03-30T01:13:30.021Z,96121.94
2023-03-30T01:16:07.924Z,96123.88
2023-03-30T01:18:49.512Z,96123.13
2023-03-30T01:21:46.355Z,96119.66
2023-03-30T01:24:49.142Z,96115.41
2023-03-30T01:27:39.235Z,96113.88
2023-03-30T01:30:20.813Z,96111.97
2023-03-30T01:33:06.420Z,96115.09
2023-03-30T01:35:58.904Z,96113.56
2023-03-30T01:38:46.653Z,96112.84
2023-03-30T01:41:30.058Z,96111.31
2023-03-30T01:44:06.757Z,96118.66
2023-03-30T01:46:42.471Z,96132.22
2023-03-30T01:49:17.240Z,96133.78
2023-03-30T01:51:53.882Z,96141.56
2023-03-30T01:54:29.339Z,96149.66
2023-03-30T01:57:06.143Z,96173.25
2023-03-30T01:59:41.861Z,96184.09
2023-03-30T02:02:16.853Z,96194.13
2023-03-30T02:04:50.079Z,96191.84
2023-03-30T02:07:24.430Z,96203.06
2023-03-30T02:09:59.351Z,96204.19
2023-03-30T02:12:34.079Z,96195.28
2023-03-30T02:15:10.537Z,96181.75
2023-03-30T02:17:46.179Z,96162.81
2023-03-30T02:20:19.515Z,96150.03
2023-03-30T02:22:52.538Z,96169.28
2023-03-30T02:25:25.161Z,96153.81
2023-03-30T02:27:59.874Z,96140.25
2023-03-30T02:30:34.138Z,96111.69
2023-03-30T02:33:07.808Z,96123.59
2023-03-30T02:35:51.494Z,96123.53
2023-03-30T02:38:38.261Z,96113.84
2023-03-30T02:41:16.616Z,96101.84
2023-03-30T02:43:56.682Z,96102.19
2023-03-30T02:46:45.127Z,96077.84
2023-03-30T02:49:21.624Z,96060.00
2023-03-30T02:51:55.929Z,96063.78
2023-03-30T02:54:33.459Z,96067.56
2023-03-30T02:57:08.866Z,96060.53
2023-03-30T02:59:48.200Z,96056.63
2023-03-30T03:02:23.233Z,96057.69
2023-03-30T03:04:56.197Z,96051.06
2023-03-30T03:07:32.279Z,96021.31
2023-03-30T03:10:06.371Z,96005.47
2023-03-30T03:12:39.300Z,96007.69
2023-03-30T03:15:14.081Z,96019.91
2023-03-30T03:17:47.007Z,96029.09
2023-03-30T03:20:20.091Z,96030.56
2023-03-30T03:22:52.736Z,96019.72
2023-03-30T03:25:25.392Z,96002.41
2023-03-30T03:27:58.791Z,96001.19
2023-03-30T03:30:33.035Z,95976.97
2023-03-30T03:33:05.789Z,95968.50
2023-03-30T03:35:39.732Z,95958.50
2023-03-30T03:38:12.437Z,95952.75
2023-03-30T03:40:45.133Z,95943.94
2023-03-30T03:43:17.904Z,95941.28
2023-03-30T03:45:52.631Z,95927.81
2023-03-30T03:48:26.040Z,95914.41
2023-03-30T03:50:59.522Z,95905.19
2023-03-30T03:53:32.535Z,95906.41
2023-03-30T03:56:05.352Z,95899.16
2023-03-30T03:58:38.002Z,95906.47
2023-03-30T04:01:14.604Z,95910.00
2023-03-30T04:03:47.435Z,95913.88
2023-03-30T04:06:20.247Z,95903.09
2023-03-30T04:08:53.403Z,95901.56
2023-03-30T04:11:27.551Z,95879.22
2023-03-30T04:14:00.486Z,95870.75
2023-03-30T04:16:34.719Z,95871.91
2023-03-30T04:19:09.211Z,95866.50
2023-03-30T04:21:47.153Z,95872.69
2023-03-30T04:24:20.197Z,95875.38
2023-03-30T04:26:53.771Z,95885.38
2023-03-30T04:29:26.509Z,95891.91
2023-03-30T04:32:03.707Z,95901.19
2023-03-30T04:34:36.841Z,95896.94
2023-03-30T04:37:09.784Z,95908.09
2023-03-30T04:39:44.034Z,95898.44
2023-03-30T04:42:20.576Z,95901.50
2023-03-30T04:44:53.230Z,95908.03
2023-03-30T04:47:27.981Z,95896.84
2023-03-30T04:50:01.113Z,95896.03
2023-03-30T04:52:33.896Z,95894.09
2023-03-30T04:55:07.086Z,95890.56
2023-03-30T04:57:39.865Z,95878.59
2023-03-30T05:00:13.914Z,95887.41
2023-03-30T05:02:48.107Z,95879.66
2023-03-30T05:05:20.906Z,95883.50
2023-03-30T05:07:54.192Z,95892.66
2023-03-30T05:10:26.947Z,95897.63
2023-03-30T05:12:59.713Z,95909.53
2023-03-30T05:15:32.362Z,95906.38
2023-03-30T05:18:06.787Z,95901.31
2023-03-30T05:20:39.860Z,95910.13
2023-03-30T05:23:12.581Z,95914.34
2023-03-30T05:25:46.472Z,95922.38
2023-03-30T05:28:19.440Z,95925.78
2023-03-30T05:30:54.301Z,95927.31
2023-03-30T05:33:28.427Z,95941.56
2023-03-30T05:36:01.209Z,95937.66
2023-03-30T05:38:33.986Z,95932.66
2023-03-30T05:41:06.949Z,95934.56
2023-03-30T05:43:39.737Z,95933.00
2023-03-30T05:46:12.490Z,95935.34
2023-03-30T05:48:46.535Z,95931.44
2023-03-30T05:51:19.206Z,95946.47
2023-03-30T05:53:52.403Z,95935.31
2023-03-30T05:56:25.244Z,95936.09
2023-03-30T05:58:58.094Z,95926.06
2023-03-30T06:01:30.836Z,95922.22
2023-03-30T06:04:05.529Z,95918.00
2023-03-30T06:06:38.320Z,95928.03
2023-03-30T06:09:11.590Z,95918.41
2023-03-30T06:11:44.231Z,95914.56
2023-03-30T06:14:17.371Z,95916.13
2023-03-30T06:16:50.282Z,95920.78
2023-03-30T06:19:24.460Z,95910.41
2023-03-30T06:21:57.292Z,95914.28
2023-03-30T06:24:30.264Z,95909.69
2023-03-30T06:27:03.441Z,95908.19
2023-03-30T06:29:38.673Z,95901.28
2023-03-30T06:32:11.872Z,95892.47
2023-03-30T06:34:46.445Z,95876.34
2023-03-30T06:37:19.566Z,95874.81
2023-03-30T06:39:52.735Z,95876.78
2023-03-30T06:42:27.464Z,95885.69
2023-03-30T06:45:01.094Z,95878.78
2023-03-30T06:47:33.825Z,95869.59
2023-03-30T06:50:08.681Z,95883.88
2023-03-30T06:52:41.438Z,95894.69
2023-03-30T06:55:14.446Z,95898.59
2023-03-30T06:57:47.308Z,95899.38
2023-03-30T07:00:20.540Z,95915.97
2023-03-30T07:02:53.260Z,95988.34
2023-03-30T07:05:29.142Z,95984.16
2023-03-30T07:08:01.984Z,95972.25
2023-03-30T07:10:35.025Z,95976.06
2023-03-30T07:13:08.910Z,95959.09
2023-03-30T07:15:41.943Z,95973.75
2023-03-30T07:18:14.968Z,95972.97
2023-03-30T07:20:49.229Z,95976.81
2023-03-30T07:23:22.581Z,95978.72
2023-03-30T07:25:55.412Z,95988.34
2023-03-30T07:28:28.200Z,95991.44
2023-03-30T07:31:07.086Z,95985.72
2023-03-30T07:33:40.062Z,95991.53
2023-03-30T07:36:14.260Z,96004.66
2023-03-30T07:38:47.699Z,95993.19
2023-03-30T07:41:21.295Z,95974.03
2023-03-30T07:43:53.999Z,95996.88
2023-03-30T07:46:26.943Z,95998.13
2023-03-30T07:48:59.883Z,96010.22
2023-03-30T07:51:34.656Z,96000.69
2023-03-30T07:54:07.356Z,95988.84
2023-03-30T07:56:42.946Z,95992.88
2023-03-30T07:59:15.717Z,95989.13
2023-03-30T08:01:50.505Z,95987.31
2023-03-30T08:04:26.416Z,95993.59
2023-03-30T08:07:01.386Z,95998.34
2023-03-30T08:09:34.243Z,95996.50
2023-03-30T08:12:07.503Z,95998.47
2023-03-30T08:14:40.271Z,95999.31
2023-03-30T08:17:13.616Z,96006.31
2023-03-30T08:19:46.311Z,96006.72
2023-03-30T08:22:21.137Z,96021.81
2023-03-30T08:24:53.860Z,96021.84
2023-03-30T08:27:26.681Z,96030.75
2023-03-30T08:29:59.496Z,96038.13
2023-03-30T08:32:32.369Z,96023.78
2023-03-30T08:35:05.324Z,96014.13
2023-03-30T08:37:39.599Z,96019.91
2023-03-30T08:40:12.935Z,96032.66
2023-03-30T08:43:06.911Z,96030.31
2023-03-30T08:45:42.688Z,96045.41
2023-03-30T08:48:18.096Z,96031.44
2023-03-30T08:50:55.979Z,96024.88
2023-03-30T08:53:31.049Z,96028.34
2023-03-30T08:56:07.787Z,96034.56
2023-03-30T08:58:44.762Z,96040.34
2023-03-30T09:01:20.113Z,96026.81
2023-03-30T09:04:03.225Z,96026.44
2023-03-30T09:06:43.472Z,96049.66
2023-03-30T09:09:19.328Z,96037.25
2023-03-30T09:11:55.334Z,96044.25
2023-03-30T09:14:33.378Z,96045.78
2023-03-30T09:17:09.773Z,96053.94
2023-03-30T09:19:47.566Z,96041.50
2023-03-30T09:22:21.834Z,96064.34
2023-03-30T09:24:56.249Z,96085.28
2023-03-30T09:27:34.144Z,96092.63
2023-03-30T09:30:16.740Z,96106.59
2023-03-30T09:32:54.745Z,96127.13
2023-03-30T09:35:29.797Z,96127.09
2023-03-30T09:38:04.076Z,96140.28
2023-03-30T09:40:45.598Z,96146.84
2023-03-30T09:43:21.095Z,96162.72
2023-03-30T09:45:53.851Z,96169.28
2023-03-30T09:48:26.552Z,96165.81
2023-03-30T09:50:59.812Z,96152.63
2023-03-30T09:53:35.752Z,96158.00
2023-03-30T09:56:11.436Z,96182.28
2023-03-30T09:58:44.183Z,96192.66
2023-03-30T10:01:18.477Z,96192.59
2023-03-30T10:04:07.999Z,96206.78
2023-03-30T10:06:46.424Z,96223.28
2023-03-30T10:09:21.244Z,96236.66
2023-03-30T10:11:56.568Z,96243.09
2023-03-30T10:14:31.797Z,96250.25
2023-03-30T10:17:06.153Z,96237.75
2023-03-30T10:22:17.995Z,96203.44
2023-03-30T10:24:52.217Z,96190.91
2023-03-30T10:27:34.244Z,96173.00
2023-03-30T10:30:10.366Z,96175.16
2023-03-30T10:32:45.829Z,96179.28
2023-03-30T10:35:20.641Z,96183.44
2023-03-30T10:37:55.985Z,96191.41
2023-03-30T10:40:33.698Z,96199.81
2023-03-30T10:43:09.918Z,96204.75
2023-03-30T10:45:45.573Z,96217.81
2023-03-30T10:48:33.406Z,96221.25
2023-03-30T10:51:10.018Z,96237.00
2023-03-30T10:53:48.868Z,96230.47
2023-03-30T10:56:27.546Z,96234.00
2023-03-30T10:59:16.060Z,96229.81
2023-03-30T11:01:54.483Z,96234.88
2023-03-30T11:04:30.387Z,96240.69
2023-03-30T11:07:05.198Z,96226.84
2023-03-30T11:09:40.252Z,96228.03
2023-03-30T11:12:16.759Z,96227.31
2023-03-30T11:14:53.895Z,96224.66
2023-03-30T11:17:28.728Z,96213.50
2023-03-30T11:20:06.521Z,96226.66
2023-03-30T11:22:42.770Z,96222.50
2023-03-30T11:25:20.676Z,96221.81
2023-03-30T11:27:56.634Z,96211.88
2023-03-30T11:30:31.434Z,96216.59
2023-03-30T11:33:09.293Z,96227.47
2023-03-30T11:35:44.465Z,96218.31
2023-03-30T11:38:19.122Z,96212.22
2023-03-30T11:40:56.154Z,96215.00
2023-03-30T11:43:31.347Z,96213.16
2023-03-30T11:46:09.818Z,96213.94
2023-03-30T11:48:54.641Z,96220.16
2023-03-30T11:51:35.655Z,96210.16
2023-03-30T11:54:20.500Z,96215.97
2023-03-30T11:56:56.921Z,96211.34
2023-03-30T11:59:34.294Z,96222.13
2023-03-30T12:02:12.574Z,96220.97
2023-03-30T12:04:48.956Z,96217.50
2023-03-30T12:07:30.400Z,96221.75
2023-03-30T12:10:06.780Z,96230.69
2023-03-30T12:12:42.701Z,96228.38
2023-03-30T12:15:27.259Z,96228.03
2023-03-30T12:18:04.375Z,96235.00
2023-03-30T12:20:40.981Z,96249.69
2023-03-30T12:23:20.888Z,96256.66
2023-03-30T12:26:08.348Z,96262.00
2023-03-30T12:29:00.805Z,96260.41
2023-03-30T12:31:55.983Z,96267.28
2023-03-30T12:34:34.312Z,96265.94
2023-03-30T12:37:10.258Z,96267.69
2023-03-30T12:39:50.387Z,96255.94
2023-03-30T12:42:27.735Z,96270.78
2023-03-30T12:45:07.649Z,96257.13
2023-03-30T12:47:45.261Z,96264.63
2023-03-30T12:50:30.399Z,96270.25
2023-03-30T12:53:23.156Z,96284.28
2023-03-30T12:56:01.669Z,96272.47
2023-03-30T12:58:49.358Z,96248.81
2023-03-30T13:01:28.623Z,96231.31
2023-03-30T13:04:03.176Z,96226.91
2023-03-30T13:06:39.349Z,96211.38
2023-03-30T13:09:33.230Z,96218.56
2023-03-30T13:12:26.014Z,96205.69
2023-03-30T13:14:59.731Z,96201.72
2023-03-30T13:17:48.547Z,96210.47
2023-03-30T13:23:26.439Z,96210.00
2023-03-30T13:26:04.618Z,96213.81
2023-03-30T13:28:56.073Z,96203.03
2023-03-30T13:31:36.183Z,96202.34
2023-03-30T13:34:15.852Z,96192.81
2023-03-30T13:36:54.168Z,96181.75
2023-03-30T13:39:30.590Z,96180.69
2023-03-30T13:42:12.905Z,96181.50
2023-03-30T13:44:50.750Z,96179.31
2023-03-30T13:47:46.316Z,96175.94
2023-03-30T13:50:25.611Z,96171.09
2023-03-30T13:53:00.929Z,96179.69
2023-03-30T13:55:37.524Z,96172.50
2023-03-30T13:58:14.991Z,96166.78
2023-03-30T14:00:50.220Z,96183.38
2023-03-30T14:03:30.853Z,96170.69
2023-03-30T14:06:05.796Z,96158.34
2023-03-30T14:08:40.093Z,96154.50
2023-03-30T14:11:16.944Z,96155.34
2023-03-30T14:13:52.081Z,96159.66
2023-03-30T14:16:26.019Z,96164.75
2023-03-30T14:19:08.384Z,96158.69
2023-03-30T14:21:44.507Z,96148.78
2023-03-30T14:24:18.677Z,96168.09
2023-03-30T14:26:54.740Z,96168.56
2023-03-30T14:29:31.654Z,96158.97
2023-03-30T14:32:09.274Z,96143.97
2023-03-30T14:34:47.061Z,96142.84
2023-03-30T14:37:21.483Z,96142.84
2023-03-30T14:39:55.839Z,96132.84
2023-03-30T14:42:33.817Z,96125.19
2023-03-30T14:45:08.933Z,96125.19
2023-03-30T14:47:41.842Z,96117.09
2023-03-30T14:50:16.877Z,96109.41
2023-03-30T14:52:50.630Z,96113.66
2023-03-30T14:55:25.610Z,96099.41
2023-03-30T14:57:59.912Z,96095.97
2023-03-30T15:00:33.938Z,96090.97
2023-03-30T15:03:07.344Z,96085.22
2023-03-30T15:05:42.766Z,96081.75
2023-03-30T15:08:21.549Z,96075.97
2023-03-30T15:10:56.020Z,96086.41
2023-03-30T15:13:33.253Z,96091.44
2023-03-30T15:16:07.331Z,96099.13
2023-03-30T15:18:40.410Z,96087.56
2023-03-30T15:21:14.392Z,96090.69
2023-03-30T15:23:48.265Z,96087.25
2023-03-30T15:26:21.340Z,96101.16
2023-03-30T15:28:57.989Z,96090.38
2023-03-30T15:31:30.772Z,96089.63
2023-03-30T15:34:05.465Z,96076.91
2023-03-30T15:36:39.237Z,96081.94
2023-03-30T15:39:22.549Z,96078.09
2023-03-30T15:42:04.428Z,96081.56
2023-03-30T15:44:41.193Z,96080.78
2023-03-30T15:47:15.892Z,96076.94
2023-03-30T15:49:50.612Z,96070.41
2023-03-30T15:52:24.786Z,96076.94
2023-03-30T15:54:57.561Z,96072.34
2023-03-30T15:57:31.442Z,96065.78
2023-03-30T16:00:08.991Z,96067.72
2023-03-30T16:02:43.071Z,96070.41
2023-03-30T16:05:17.948Z,96065.78
2023-03-30T16:07:50.936Z,96064.66
2023-03-30T16:10:26.549Z,96057.69
2023-03-30T16:13:00.570Z,96066.56
2023-03-30T16:15:34.990Z,96055.78
2023-03-30T16:18:07.824Z,96060.75
2023-03-30T16:20:40.817Z,96053.81
2023-03-30T16:23:13.483Z,96047.22
2023-03-30T16:25:46.309Z,96051.47
2023-03-30T16:28:19.434Z,96052.19
2023-03-30T16:30:54.847Z,96043.69
2023-03-30T16:33:27.626Z,96049.81
2023-03-30T16:36:00.815Z,96048.28
2023-03-30T16:38:33.867Z,96054.41
2023-03-30T16:41:07.145Z,96052.84
2023-03-30T16:43:39.960Z,96049.72
2023-03-30T16:46:15.782Z,96040.44
2023-03-30T16:48:48.955Z,96045.78
2023-03-30T16:51:21.713Z,96039.59
2023-03-30T16:53:54.379Z,96048.41
2023-03-30T16:56:29.153Z,96039.91
2023-03-30T16:59:01.912Z,96043.00
2023-03-30T17:01:36.454Z,96028.69
2023-03-30T17:04:09.749Z,96043.31
2023-03-30T17:06:42.516Z,96041.38
2023-03-30T17:09:17.091Z,96037.47
2023-03-30T17:11:50.345Z,96044.38
2023-03-30T17:14:24.442Z,96035.47
2023-03-30T17:16:58.725Z,96045.09
2023-03-30T17:19:31.588Z,96046.25
2023-03-30T17:22:04.485Z,96042.78
2023-03-30T17:24:37.220Z,96042.81
2023-03-30T17:27:10.384Z,96045.91
2023-03-30T17:29:43.074Z,96040.16
2023-03-30T17:32:17.290Z,96044.41
2023-03-30T17:34:50.182Z,96047.91
2023-03-30T17:37:23.213Z,96046.69
2023-03-30T17:39:56.215Z,96041.25
2023-03-30T17:42:29.084Z,96037.41
2023-03-30T17:45:01.820Z,96036.94
2023-03-30T17:47:36.042Z,96037.22
2023-03-30T17:50:20.329Z,96039.09
2023-03-30T17:52:53.250Z,96043.25
2023-03-30T17:55:27.024Z,96048.59
2023-03-30T17:58:00.394Z,96048.16
2023-03-30T18:00:33.784Z,96061.94
2023-03-30T18:03:08.058Z,96058.78
2023-03-30T18:05:41.036Z,96067.19
2023-03-30T18:08:17.455Z,96063.25
2023-03-30T18:10:51.696Z,96072.41
2023-03-30T18:13:25.384Z,96076.56
2023-03-30T18:15:59.601Z,96069.94
2023-03-30T18:18:33.780Z,96078.31
2023-03-30T18:21:07.864Z,96075.09
2023-03-30T18:23:40.719Z,96065.75
2023-03-30T18:26:13.943Z,96079.91
2023-03-30T18:28:46.930Z,96077.84
2023-03-30T18:31:19.726Z,96073.13
2023-03-30T18:33:53.909Z,96079.59
2023-03-30T18:36:26.662Z,96081.38
2023-03-30T18:39:00.346Z,96085.13
2023-03-30T18:41:32.994Z,96091.16
2023-03-30T18:44:06.139Z,96086.06
2023-03-30T18:46:39.067Z,96088.69
2023-03-30T18:49:13.778Z,96084.38
2023-03-30T18:51:46.479Z,96094.66
2023-03-30T18:54:20.093Z,96097.25
2023-03-30T18:56:52.900Z,96096.44
2023-03-30T18:59:26.330Z,96090.19
2023-03-30T19:01:59.418Z,96092.06
2023-03-30T19:04:34.153Z,96096.97
2023-03-30T19:07:07.429Z,96106.06
2023-03-30T19:09:43.327Z,96102.53
2023-03-30T19:12:16.339Z,96095.53
2023-03-30T19:14:49.107Z,96102.38
2023-03-30T19:17:21.864Z,96116.19
2023-03-30T19:19:56.088Z,96114.56
2023-03-30T19:22:29.066Z,96114.13
2023-03-30T19:25:01.886Z,96106.06
2023-03-30T19:27:34.925Z,96118.31
2023-03-30T19:30:08.504Z,96117.16
2023-03-30T19:32:41.847Z,96122.13
2023-03-30T19:35:17.246Z,96125.16
2023-03-30T19:37:50.317Z,96123.25
2023-03-30T19:40:23.111Z,96121.69
2023-03-30T19:42:55.912Z,96111.72
2023-03-30T19:45:28.640Z,96107.47
2023-03-30T19:48:01.797Z,96107.47
2023-03-30T19:50:38.454Z,96109.72
2023-03-30T19:53:11.312Z,96101.66
2023-03-30T19:55:46.261Z,96099.75
2023-03-30T19:58:19.004Z,96093.59
2023-03-30T20:00:51.762Z,96089.78
2023-03-30T20:03:25.149Z,96096.72
2023-03-30T20:05:59.404Z,96092.91
2023-03-30T20:08:32.929Z,96086.06
2023-03-30T20:11:07.706Z,96088.88
2023-03-30T20:13:45.538Z,96092.41
2023-03-30T20:16:21.389Z,96084.88
2023-03-30T20:18:56.717Z,96087.69
2023-03-30T20:21:31.370Z,96081.22
2023-03-30T20:24:04.067Z,96079.41
2023-03-30T20:26:37.033Z,96074.06
2023-03-30T20:29:09.678Z,96073.78
2023-03-30T20:31:42.463Z,96078.81
2023-03-30T20:34:16.509Z,96088.84
2023-03-30T20:36:50.621Z,96085.03
2023-03-30T20:39:27.140Z,96080.84
2023-03-30T20:42:02.115Z,96063.94
2023-03-30T20:44:35.335Z,96057.88
2023-03-30T20:47:08.920Z,96044.00
2023-03-30T20:49:43.844Z,96053.63
2023-03-30T20:52:18.473Z,96056.31
2023-03-30T20:54:51.491Z,96040.16
2023-03-30T20:57:24.862Z,96033.66
2023-03-30T20:59:57.902Z,96038.66
2023-03-30T21:02:31.638Z,96036.75
2023-03-30T21:05:04.474Z,96014.44
2023-03-30T21:07:42.339Z,96012.53
2023-03-30T21:10:16.535Z,96013.31
2023-03-30T21:12:49.323Z,96009.84
2023-03-30T21:15:22.325Z,96011.41
2023-03-30T21:17:55.084Z,96021.03
2023-03-30T21:20:27.710Z,96022.53
2023-03-30T21:23:01.967Z,96019.06
2023-03-30T21:25:35.121Z,96014.06
2023-03-30T21:28:08.130Z,96021.69
2023-03-30T21:30:40.976Z,96022.06
2023-03-30T21:33:13.753Z,96035.84
2023-03-30T21:35:49.711Z,96027.00
2023-03-30T21:38:24.389Z,96011.28
2023-03-30T21:40:58.278Z,95996.72
2023-03-30T21:43:31.540Z,95981.06
2023-03-30T21:46:05.525Z,95983.03
2023-03-30T21:48:39.873Z,95968.50
2023-03-30T21:51:14.165Z,95973.59
2023-03-30T21:53:50.643Z,95975.19
2023-03-30T21:56:24.605Z,95972.56
2023-03-30T21:58:57.435Z,95961.84
2023-03-30T22:01:30.462Z,95958.84
2023-03-30T22:04:05.997Z,95969.72
2023-03-30T22:06:39.324Z,95958.97
2023-03-30T22:09:13.392Z,95961.75
2023-03-30T22:11:46.136Z,95960.28
2023-03-30T22:14:18.858Z,95951.50
2023-03-30T22:16:51.580Z,95952.31
2023-03-30T22:19:25.672Z,95951.59
2023-03-30T22:21:58.292Z,95945.06
2023-03-30T22:24:32.529Z,95940.84
2023-03-30T22:27:05.400Z,95943.53
2023-03-30T22:29:38.099Z,95938.16
2023-03-30T22:32:11.130Z,95942.81
2023-03-30T22:34:43.903Z,95928.16
2023-03-30T22:37:16.827Z,95935.09
2023-03-30T22:39:51.400Z,95927.81
2023-03-30T22:42:24.110Z,95917.41
2023-03-30T22:44:57.613Z,95912.00
2023-03-30T22:47:30.406Z,95913.16
2023-03-30T22:50:03.221Z,95911.66
2023-03-30T22:52:35.954Z,95896.25
2023-03-30T22:55:10.824Z,95898.56
2023-03-30T22:57:43.534Z,95899.34
2023-03-30T23:00:17.917Z,95892.03
2023-03-30T23:02:51.267Z,95893.19
2023-03-30T23:05:25.619Z,95883.19
2023-03-30T23:07:58.829Z,95882.41
2023-03-30T23:10:33.961Z,95881.28
2023-03-30T23:13:06.793Z,95876.31
2023-03-30T23:15:39.520Z,95872.47
2023-03-30T23:18:12.506Z,95869.78
2023-03-30T23:20:46.865Z,95869.78
2023-03-30T23:23:19.618Z,95863.19
2023-03-30T23:25:54.185Z,95865.53
2023-03-30T23:28:26.975Z,95860.88
2023-03-30T23:30:59.691Z,95860.09
2023-03-30T23:33:32.343Z,95845.13
2023-03-30T23:36:06.418Z,95847.03
2023-03-30T23:38:39.358Z,95843.91
2023-03-30T23:41:14.073Z,95844.28
2023-03-30T23:43:47.568Z,95825.81
2023-03-30T23:46:20.391Z,95827.31
2023-03-30T23:48:53.165Z,95825.78
2023-03-30T23:51:25.938Z,95821.13
2023-03-30T23:54:06.006Z,95826.06
2023-03-30T23:56:42.277Z,95823.38
2023-03-30T23:59:15.035Z,95816.44
